• Join FlightAware (Why Join?)
  • Login
  • US Flag 
06:21AM EST


 

Airport Tracker/Info


-or-


 

Live Flight TrackerFlight Track Log ✈ N21HG ✈ 01-May-2012 ✈ 5C1 - KPNC

Flight Track Log - Related Links

Times and Time Zones

All times are in EDT time to prevent confusion due to time zone crossing. See the N21HG flight status page for this flight to view local times or setup timezone preferences in your user account.

Time Position Orientation Groundspeed Altitude Reporting Facility
EDT Latitude Longitude Course Direction KTS MPH feet Rate Location/Type
08:03PM 29.7581 -98.7150 North 163 188 3,600  Level Houston Center
08:04PM 29.8086 -98.7064 12° North 163 188 4,400 600 Climbing Houston Center
08:05PM 29.8550 -98.6953 13° North 165 190 5,000 540 Climbing Houston Center
08:06PM 29.8972 -98.6839 47° Northeast 168 193 5,500 540 Climbing Houston Center
08:07PM 29.9194 -98.6567 46° Northeast 186 214 6,000 600 Climbing Houston Center
08:08PM 29.9553 -98.6136 46° Northeast 171 197 6,600 480 Climbing Houston Center
08:09PM 29.9839 -98.5794 46° Northeast 165 190 7,000 240 Climbing Houston Center
08:10PM 30.0217 -98.5342 46° Northeast 165 190 7,100  Climbing Houston Center
08:11PM 30.0506 -98.5000 48° Northeast 160 184 7,100  Level Houston Center
08:12PM 30.0819 -98.4592 48° Northeast 160 184 7,100  Level Houston Center
08:13PM 30.1175 -98.4133 22° Northeast 165 190 7,100  Level Houston Center
08:14PM 30.1581 -98.3944 North 158 182 7,100  Level Houston Center
08:15PM 30.2106 -98.3883 North 163 188 7,100  Level Houston Center
08:16PM 30.2547 -98.3817 North 175 201 7,100  Level Houston Center
08:17PM 30.3008 -98.3750 11° North 185 213 7,100  Level Houston Center
08:18PM 30.3578 -98.3619 North 180 207 7,100  Level Houston Center
08:19PM 30.4103 -98.3533 North 185 213 7,100  Level Houston Center
08:20PM 30.4589 -98.3447 North 179 206 7,100  Level Houston Center
08:21PM 30.5133 -98.3386 North 185 213 7,100  Level Houston Center
08:22PM 30.5617 -98.3297 North 180 207 7,100  Level Houston Center
08:23PM 30.6206 -98.3217 North 180 207 7,100  Level Houston Center
08:24PM 30.7217 -98.3072 North 191 220 7,100  Level Fort Worth Center
08:26PM 30.7758 -98.3006 North 190 219 7,100  Level Fort Worth Center
08:27PM 30.8303 -98.2914 North 189 217 7,100  Level Fort Worth Center
08:28PM 30.8803 -98.2847 North 188 216 7,100  Level Fort Worth Center
08:29PM 30.9347 -98.2756 North 188 216 7,100  Level Fort Worth Center
08:30PM 30.9869 -98.2686 North 188 216 7,100  Level Fort Worth Center
08:31PM 31.0414 -98.2594 North 188 216 7,100  Level Fort Worth Center
08:32PM 31.0936 -98.2528 11° North 187 215 7,100  Level Fort Worth Center
08:32PM 31.1353 -98.2433 North 185 213 7,100  Level Fort Worth Center
08:33PM 31.1897 -98.2367 North 188 216 7,100  Level Fort Worth Center
08:34PM 31.2439 -98.2272 North 188 216 7,100  Level Fort Worth Center
08:36PM 31.2961 -98.2206 North 188 216 7,100  Level Fort Worth Center
08:37PM 31.3486 -98.2111 North 189 217 7,100  Level Fort Worth Center
08:38PM 31.4008 -98.2044 North 191 220 7,100  Level Fort Worth Center
08:39PM 31.4550 -98.1950 North 190 219 7,100  Level Fort Worth Center
08:40PM 31.5072 -98.1881 North 191 220 7,100  Level Fort Worth Center
08:41PM 31.5783 -98.1742 North 214 246 7,100  Level Fort Worth Center
08:42PM 31.6306 -98.1647 11° North 193 222 7,100  Level Fort Worth Center
08:43PM 31.6828 -98.1531 North 188 216 7,100  Level Fort Worth Center
08:44PM 31.7353 -98.1436 11° North 183 211 7,100  Level Fort Worth Center
08:45PM 31.7853 -98.1319 North 183 211 7,100  Level Fort Worth Center
08:46PM 31.8333 -98.1225 North 183 211 7,100  Level Fort Worth Center
08:47PM 31.8836 -98.1156 North 183 211 7,100  Level Fort Worth Center
08:48PM 31.9358 -98.1061 14° North 183 211 7,100  Level Fort Worth Center
08:49PM 31.9922 -98.0894 North 183 211 7,100  Level Fort Worth Center
08:50PM 32.0467 -98.0800 North 183 211 7,100  Level Fort Worth Center
08:51PM 32.0967 -98.0706 North 183 211 7,100  Level Fort Worth Center
08:52PM 32.1511 -98.0611 North 183 211 7,100  Level Fort Worth Center
08:53PM 32.2011 -98.0517 11° North 183 211 7,100  Level Fort Worth Center
08:54PM 32.2514 -98.0397 North 183 211 7,100  Level Fort Worth Center
08:55PM 32.3078 -98.0303 12° North 188 216 7,100  Level Fort Worth Center
08:56PM 32.3558 -98.0183 10° North 188 216 7,100  Level Fort Worth Center
08:57PM 32.4122 -98.0064 North 183 211 7,100  Level Fort Worth Center
08:58PM 32.4603 -97.9994 10° North 183 211 7,100  Level Fort Worth Center
08:59PM 32.5189 -97.9875 North 183 211 7,100  Level Fort Worth Center
09:00PM 32.5669 -97.9781 10° North 183 211 7,100  Level Fort Worth Center
09:01PM 32.6256 -97.9658 12° North 188 216 7,100  Level Fort Worth Center
09:02PM 32.6736 -97.9539 10° North 188 216 7,100  Level Fort Worth Center
09:03PM 32.7300 -97.9419 North 188 216 7,100  Level Fort Worth Center
09:04PM 32.7781 -97.9347 10° North 188 216 7,100  Level Fort Worth Center
09:05PM 32.8364 -97.9228 North 188 216 7,100  Level Fort Worth Center
09:06PM 32.8867 -97.9131 10° North 188 216 7,100  Level Fort Worth Center
09:07PM 32.9431 -97.9011 North 193 222 7,100  Level Fort Worth Center
09:08PM 32.9931 -97.8914 10° North 193 222 7,100  Level Fort Worth Center
09:09PM 33.0517 -97.8794 North 193 222 7,100  Level Fort Worth Center
09:10PM 33.1017 -97.8697 10° North 199 229 7,100  Level Fort Worth Center
09:11PM 33.1603 -97.8575 North 199 229 7,100  Level Fort Worth Center
09:12PM 33.2106 -97.8481 10° North 199 229 7,100  Level Fort Worth Center
09:13PM 33.2689 -97.8358 10° North 199 229 7,100 -60 Level Fort Worth Center
09:14PM 33.3150 -97.8261 North 199 229 7,000  Descending Fort Worth Center
09:15PM 33.3775 -97.8139 10° North 199 229 7,100  Climbing Fort Worth Center
09:16PM 33.4256 -97.8042 12° North 199 229 7,100  Level Fort Worth Center
09:17PM 33.4842 -97.7894 North 199 229 7,100  Level Fort Worth Center
09:18PM 33.5342 -97.7797 North 199 229 7,100  Level Fort Worth Center
09:19PM 33.5906 -97.7700 North 199 229 7,100  Level Fort Worth Center
09:20PM 33.6428 -97.7603 North 199 229 7,100  Level Fort Worth Center
09:21PM 33.6969 -97.7506 12° North 199 229 7,100  Level Fort Worth Center
09:22PM 33.7556 -97.7358 North 199 229 7,100  Level Fort Worth Center
09:23PM 33.8078 -97.7258 10° North 199 229 7,100 -60 Level Fort Worth Center
09:24PM 33.8642 -97.7136 11° North 199 229 7,000 -60 Descending Fort Worth Center
09:25PM 33.9183 -97.7014 North 199 229 7,000  Level Fort Worth Center
09:26PM 33.9706 -97.6914 11° North 199 229 7,000  Level Fort Worth Center
09:27PM 34.0250 -97.6792 North 199 229 7,000  Level Fort Worth Center
09:28PM 34.0769 -97.6692 12° North 199 229 7,000  Level Fort Worth Center
09:29PM 34.1250 -97.6569 North 204 235 7,000  Level Fort Worth Center
09:30PM 34.1794 -97.6469 11° North 198 228 7,000  Level Fort Worth Center
09:31PM 34.2317 -97.6344 North 193 222 7,000  Level Fort Worth Center
09:32PM 34.2878 -97.6272 11° North 193 222 7,000  Level Fort Worth Center
09:33PM 34.3422 -97.6147 12° North 198 228 7,000  Level Fort Worth Center
09:34PM 34.4028 -97.5997 North 198 228 7,000  Level Fort Worth Center
09:35PM 34.4569 -97.5897 11° North 198 228 7,000  Level Fort Worth Center
09:36PM 34.5092 -97.5772 North 198 228 7,000  Level Fort Worth Center
09:37PM 34.5633 -97.5672 10° North 198 228 7,000  Level Fort Worth Center
09:38PM 34.6197 -97.5547 North 198 228 7,000  Level Fort Worth Center
09:39PM 34.6719 -97.5447 10° North 198 228 7,000  Level Fort Worth Center
09:40PM 34.7178 -97.5347 North 198 228 7,000  Level Fort Worth Center
09:41PM 34.7575 -97.5272 10° North 193 222 7,000  Level Fort Worth Center
09:41PM 34.8056 -97.5172 10° North 194 223 7,000  Level Fort Worth Center
09:43PM 34.8639 -97.5047 North 193 222 7,100  Climbing Fort Worth Center
09:44PM 34.9161 -97.4944 10° North 192 221 7,100  Level Fort Worth Center
09:45PM 34.9725 -97.4819 12° North 193 222 7,100  Level Fort Worth Center
09:46PM 35.0225 -97.4694 North 192 221 7,100  Level Fort Worth Center
09:47PM 35.0767 -97.4592 North 193 222 7,100  Level Fort Worth Center
09:48PM 35.1308 -97.4492 North 192 221 7,100  Level Fort Worth Center
09:49PM 35.1811 -97.4389 11° North 192 221 7,100  Level Fort Worth Center
09:50PM 35.2353 -97.4264 North 195 224 7,100  Level Fort Worth Center
09:51PM 35.2978 -97.4136 10° North 194 223 7,100  Level Fort Worth Center
09:52PM 35.3458 -97.4033 11° North 195 224 7,100  Level Fort Worth Center
09:53PM 35.4000 -97.3906 11° North 195 224 7,100  Level Fort Worth Center
09:54PM 35.4542 -97.3778 North 199 229 7,100  Level Fort Worth Center
09:55PM 35.5064 -97.3678 10° North 195 224 7,100  Level Fort Worth Center
09:57PM 35.6306 -97.3400 North 204 235 7,100  Level Kansas City Center
09:58PM 35.6850 -97.3292 10° North 199 229 7,100  Level Kansas City Center
09:59PM 35.7375 -97.3183 11° North 199 229 7,100  Level Kansas City Center
10:00PM 35.7919 -97.3047 North 199 229 7,100  Level Kansas City Center
10:01PM 35.8403 -97.2964 11° North 199 229 7,100  Level Kansas City Center
10:02PM 35.8947 -97.2828 North 199 229 7,100  Level Kansas City Center
10:03PM 35.9472 -97.2719 North 199 229 7,100  Level Kansas City Center
10:04PM 36.0017 -97.2608 11° North 199 229 7,100  Level Kansas City Center
10:05PM 36.0564 -97.2475 North 199 229 7,100  Level Kansas City Center
10:06PM 36.1108 -97.2364 North 199 229 7,100  Level Kansas City Center